sensor_id;sensor_type;location;lat;lon;timestamp;temperature;humidity
19880;DHT22;10102;50.828;4.416;2023-04-29T00:01:09;13.70;99.90
19880;DHT22;10102;50.828;4.416;2023-04-29T00:03:35;13.70;99.90
19880;DHT22;10102;50.828;4.416;2023-04-29T00:06:01;13.60;99.90
19880;DHT22;10102;50.828;4.416;2023-04-29T00:08:26;13.70;99.90
19880;DHT22;10102;50.828;4.416;2023-04-29T00:10:52;13.60;99.90
19880;DHT22;10102;50.828;4.416;2023-04-29T00:13:18;13.70;99.90
19880;DHT22;10102;50.828;4.416;2023-04-29T00:18:10;13.40;99.90
19880;DHT22;10102;50.828;4.416;2023-04-29T00:20:36;13.60;99.90
19880;DHT22;10102;50.828;4.416;2023-04-29T00:25:31;13.40;99.90
19880;DHT22;10102;50.828;4.416;2023-04-29T00:27:57;13.40;99.90
19880;DHT22;10102;50.828;4.416;2023-04-29T00:30:27;13.30;99.90
19880;DHT22;10102;50.828;4.416;2023-04-29T00:32:53;13.70;99.90
19880;DHT22;10102;50.828;4.416;2023-04-29T00:35:20;13.20;99.90
19880;DHT22;10102;50.828;4.416;2023-04-29T00:37:46;13.20;99.90
19880;DHT22;10102;50.828;4.416;2023-04-29T00:42:39;13.00;99.90
19880;DHT22;10102;50.828;4.416;2023-04-29T00:45:07;13.10;99.90
19880;DHT22;10102;50.828;4.416;2023-04-29T00:47:32;12.90;99.90
19880;DHT22;10102;50.828;4.416;2023-04-29T00:49:58;12.80;99.90
19880;DHT22;10102;50.828;4.416;2023-04-29T00:52:25;13.00;99.90
19880;DHT22;10102;50.828;4.416;2023-04-29T00:54:53;13.00;99.90
19880;DHT22;10102;50.828;4.416;2023-04-29T00:57:20;12.90;99.90
19880;DHT22;10102;50.828;4.416;2023-04-29T00:59:47;12.90;99.90
19880;DHT22;10102;50.828;4.416;2023-04-29T01:02:14;12.90;99.90
19880;DHT22;10102;50.828;4.416;2023-04-29T01:04:42;12.80;99.90
19880;DHT22;10102;50.828;4.416;2023-04-29T01:07:16;12.90;99.90
19880;DHT22;10102;50.828;4.416;2023-04-29T01:12:49;13.20;99.90
19880;DHT22;10102;50.828;4.416;2023-04-29T01:15:32;12.90;99.90
19880;DHT22;10102;50.828;4.416;2023-04-29T01:18:19;12.80;99.90
19880;DHT22;10102;50.828;4.416;2023-04-29T01:28:33;12.80;99.90
19880;DHT22;10102;50.828;4.416;2023-04-29T01:39:19;12.80;99.90
19880;DHT22;10102;50.828;4.416;2023-04-29T01:42:14;12.70;99.90
19880;DHT22;10102;50.828;4.416;2023-04-29T01:44:42;12.80;99.90
19880;DHT22;10102;50.828;4.416;2023-04-29T01:47:12;12.80;99.90
19880;DHT22;10102;50.828;4.416;2023-04-29T01:49:38;12.80;99.90
19880;DHT22;10102;50.828;4.416;2023-04-29T01:52:04;12.70;99.90
19880;DHT22;10102;50.828;4.416;2023-04-29T01:54:31;12.70;99.90
19880;DHT22;10102;50.828;4.416;2023-04-29T01:57:01;12.80;99.90
19880;DHT22;10102;50.828;4.416;2023-04-29T01:59:27;12.90;99.90
19880;DHT22;10102;50.828;4.416;2023-04-29T02:04:21;12.70;99.90
19880;DHT22;10102;50.828;4.416;2023-04-29T02:09:12;12.60;99.90
19880;DHT22;10102;50.828;4.416;2023-04-29T02:11:38;12.70;99.90
19880;DHT22;10102;50.828;4.416;2023-04-29T02:14:04;12.70;99.90
19880;DHT22;10102;50.828;4.416;2023-04-29T02:16:29;12.60;99.90
19880;DHT22;10102;50.828;4.416;2023-04-29T02:18:55;12.40;99.90
19880;DHT22;10102;50.828;4.416;2023-04-29T02:26:13;12.50;99.90
19880;DHT22;10102;50.828;4.416;2023-04-29T02:28:39;12.60;99.90
19880;DHT22;10102;50.828;4.416;2023-04-29T02:31:05;12.60;99.90
19880;DHT22;10102;50.828;4.416;2023-04-29T02:33:31;12.40;99.90
19880;DHT22;10102;50.828;4.416;2023-04-29T02:35:57;12.40;99.90
19880;DHT22;10102;50.828;4.416;2023-04-29T02:38:24;12.30;99.90
19880;DHT22;10102;50.828;4.416;2023-04-29T02:40:49;12.40;99.90
19880;DHT22;10102;50.828;4.416;2023-04-29T02:43:16;12.10;99.90
19880;DHT22;10102;50.828;4.416;2023-04-29T02:45:41;12.40;99.90
19880;DHT22;10102;50.828;4.416;2023-04-29T02:48:07;12.30;99.90
19880;DHT22;10102;50.828;4.416;2023-04-29T02:50:33;12.40;99.90
19880;DHT22;10102;50.828;4.416;2023-04-29T02:52:59;12.30;99.90
19880;DHT22;10102;50.828;4.416;2023-04-29T02:57:51;12.30;99.90
19880;DHT22;10102;50.828;4.416;2023-04-29T03:00:17;12.30;99.90
19880;DHT22;10102;50.828;4.416;2023-04-29T03:07:36;12.20;99.90
19880;DHT22;10102;50.828;4.416;2023-04-29T03:12:27;12.30;99.90
19880;DHT22;10102;50.828;4.416;2023-04-29T03:17:19;12.10;99.90
19880;DHT22;10102;50.828;4.416;2023-04-29T03:19:45;12.30;99.90
19880;DHT22;10102;50.828;4.416;2023-04-29T03:22:11;12.30;99.90
19880;DHT22;10102;50.828;4.416;2023-04-29T03:24:37;12.30;99.90
19880;DHT22;10102;50.828;4.416;2023-04-29T03:27:03;12.10;99.90
19880;DHT22;10102;50.828;4.416;2023-04-29T03:29:30;12.10;99.90
19880;DHT22;10102;50.828;4.416;2023-04-29T03:31:56;12.10;99.90
19880;DHT22;10102;50.828;4.416;2023-04-29T03:34:22;12.20;99.90
19880;DHT22;10102;50.828;4.416;2023-04-29T03:36:48;12.40;99.90
19880;DHT22;10102;50.828;4.416;2023-04-29T03:39:15;12.30;99.90
19880;DHT22;10102;50.828;4.416;2023-04-29T03:41:41;12.20;99.90
19880;DHT22;10102;50.828;4.416;2023-04-29T03:46:33;12.30;99.90
19880;DHT22;10102;50.828;4.416;2023-04-29T03:51:26;12.30;99.90
19880;DHT22;10102;50.828;4.416;2023-04-29T03:53:53;12.40;99.90
19880;DHT22;10102;50.828;4.416;2023-04-29T03:58:45;12.30;99.90
19880;DHT22;10102;50.828;4.416;2023-04-29T04:01:11;12.40;99.90
19880;DHT22;10102;50.828;4.416;2023-04-29T04:03:37;12.40;99.90
19880;DHT22;10102;50.828;4.416;2023-04-29T04:06:03;12.20;99.90
19880;DHT22;10102;50.828;4.416;2023-04-29T04:08:29;12.10;99.90
19880;DHT22;10102;50.828;4.416;2023-04-29T04:13:30;12.40;99.90
19880;DHT22;10102;50.828;4.416;2023-04-29T04:15:56;12.20;99.90
19880;DHT22;10102;50.828;4.416;2023-04-29T04:18:22;12.00;99.90
19880;DHT22;10102;50.828;4.416;2023-04-29T04:20:48;12.30;99.90
19880;DHT22;10102;50.828;4.416;2023-04-29T04:23:13;12.30;99.90
19880;DHT22;10102;50.828;4.416;2023-04-29T04:25:48;12.00;99.90
19880;DHT22;10102;50.828;4.416;2023-04-29T04:40:27;12.20;99.90
19880;DHT22;10102;50.828;4.416;2023-04-29T04:42:53;12.20;99.90
19880;DHT22;10102;50.828;4.416;2023-04-29T04:45:18;12.10;99.90
19880;DHT22;10102;50.828;4.416;2023-04-29T04:47:44;12.10;99.90
19880;DHT22;10102;50.828;4.416;2023-04-29T04:52:36;12.20;99.90
19880;DHT22;10102;50.828;4.416;2023-04-29T04:55:02;12.20;99.90
19880;DHT22;10102;50.828;4.416;2023-04-29T05:09:38;12.10;99.90
19880;DHT22;10102;50.828;4.416;2023-04-29T05:12:04;12.60;99.90
19880;DHT22;10102;50.828;4.416;2023-04-29T05:14:29;12.30;99.90
19880;DHT22;10102;50.828;4.416;2023-04-29T05:16:58;12.30;99.90
19880;DHT22;10102;50.828;4.416;2023-04-29T05:19:24;12.10;99.90
19880;DHT22;10102;50.828;4.416;2023-04-29T05:21:50;12.50;99.90
19880;DHT22;10102;50.828;4.416;2023-04-29T05:24:16;12.20;99.90
19880;DHT22;10102;50.828;4.416;2023-04-29T05:29:09;12.20;99.90
19880;DHT22;10102;50.828;4.416;2023-04-29T05:31:35;12.20;99.90
19880;DHT22;10102;50.828;4.416;2023-04-29T05:34:01;12.10;99.90
19880;DHT22;10102;50.828;4.416;2023-04-29T05:36:27;12.20;99.90
19880;DHT22;10102;50.828;4.416;2023-04-29T05:38:53;12.20;99.90
19880;DHT22;10102;50.828;4.416;2023-04-29T05:41:19;12.00;99.90
19880;DHT22;10102;50.828;4.416;2023-04-29T05:43:45;11.90;99.90
19880;DHT22;10102;50.828;4.416;2023-04-29T05:46:11;12.20;99.90
19880;DHT22;10102;50.828;4.416;2023-04-29T05:48:36;12.00;99.90
19880;DHT22;10102;50.828;4.416;2023-04-29T05:51:02;12.10;99.90
19880;DHT22;10102;50.828;4.416;2023-04-29T05:53:28;12.40;99.90
19880;DHT22;10102;50.828;4.416;2023-04-29T05:55:53;12.10;99.90
19880;DHT22;10102;50.828;4.416;2023-04-29T05:58:19;12.10;99.90
19880;DHT22;10102;50.828;4.416;2023-04-29T06:00:45;11.80;99.90
19880;DHT22;10102;50.828;4.416;2023-04-29T06:03:12;12.10;99.90
19880;DHT22;10102;50.828;4.416;2023-04-29T06:05:38;12.20;99.90
19880;DHT22;10102;50.828;4.416;2023-04-29T06:08:04;12.10;99.90
19880;DHT22;10102;50.828;4.416;2023-04-29T06:10:30;12.30;99.90
19880;DHT22;10102;50.828;4.416;2023-04-29T06:12:56;12.20;99.90
19880;DHT22;10102;50.828;4.416;2023-04-29T06:15:22;12.40;99.90
19880;DHT22;10102;50.828;4.416;2023-04-29T06:17:47;12.20;99.90
19880;DHT22;10102;50.828;4.416;2023-04-29T06:20:13;12.30;99.90
19880;DHT22;10102;50.828;4.416;2023-04-29T06:22:39;12.20;99.90
19880;DHT22;10102;50.828;4.416;2023-04-29T06:27:31;12.10;99.90
19880;DHT22;10102;50.828;4.416;2023-04-29T06:29:57;12.00;99.90
19880;DHT22;10102;50.828;4.416;2023-04-29T06:37:15;11.80;99.90
19880;DHT22;10102;50.828;4.416;2023-04-29T06:44:33;12.30;99.90
19880;DHT22;10102;50.828;4.416;2023-04-29T06:46:59;12.40;99.90
19880;DHT22;10102;50.828;4.416;2023-04-29T06:49:25;12.40;99.90
19880;DHT22;10102;50.828;4.416;2023-04-29T06:51:50;12.20;99.90
19880;DHT22;10102;50.828;4.416;2023-04-29T06:59:08;12.50;99.90
19880;DHT22;10102;50.828;4.416;2023-04-29T07:01:37;12.20;99.90
19880;DHT22;10102;50.828;4.416;2023-04-29T07:04:03;12.40;99.90
19880;DHT22;10102;50.828;4.416;2023-04-29T07:06:29;12.60;99.90
19880;DHT22;10102;50.828;4.416;2023-04-29T07:08:55;12.50;99.90
19880;DHT22;10102;50.828;4.416;2023-04-29T07:11:21;12.50;99.90
19880;DHT22;10102;50.828;4.416;2023-04-29T07:13:51;12.40;99.90
19880;DHT22;10102;50.828;4.416;2023-04-29T07:16:17;12.40;99.90
19880;DHT22;10102;50.828;4.416;2023-04-29T07:18:49;12.40;99.90
19880;DHT22;10102;50.828;4.416;2023-04-29T07:21:14;12.40;99.90
19880;DHT22;10102;50.828;4.416;2023-04-29T07:23:40;12.50;99.90
19880;DHT22;10102;50.828;4.416;2023-04-29T07:26:12;12.50;99.90
19880;DHT22;10102;50.828;4.416;2023-04-29T07:28:38;12.60;99.90
19880;DHT22;10102;50.828;4.416;2023-04-29T07:31:05;12.10;99.90
19880;DHT22;10102;50.828;4.416;2023-04-29T07:33:32;12.40;99.90
19880;DHT22;10102;50.828;4.416;2023-04-29T07:35:58;12.60;99.90
19880;DHT22;10102;50.828;4.416;2023-04-29T07:38:24;12.60;99.90
19880;DHT22;10102;50.828;4.416;2023-04-29T07:43:16;12.60;99.90
19880;DHT22;10102;50.828;4.416;2023-04-29T07:45:41;12.70;99.90
19880;DHT22;10102;50.828;4.416;2023-04-29T07:48:07;12.60;99.90
19880;DHT22;10102;50.828;4.416;2023-04-29T07:50:34;12.70;99.90
19880;DHT22;10102;50.828;4.416;2023-04-29T07:53:04;12.60;99.90
19880;DHT22;10102;50.828;4.416;2023-04-29T07:55:29;12.40;99.90
19880;DHT22;10102;50.828;4.416;2023-04-29T07:57:56;12.80;99.90
19880;DHT22;10102;50.828;4.416;2023-04-29T08:00:23;12.90;99.90
19880;DHT22;10102;50.828;4.416;2023-04-29T08:02:52;12.90;99.90
19880;DHT22;10102;50.828;4.416;2023-04-29T08:07:48;12.80;99.90
19880;DHT22;10102;50.828;4.416;2023-04-29T08:10:15;13.40;99.90
19880;DHT22;10102;50.828;4.416;2023-04-29T08:15:07;13.20;99.90
19880;DHT22;10102;50.828;4.416;2023-04-29T08:19:59;13.40;99.90
19880;DHT22;10102;50.828;4.416;2023-04-29T08:22:25;13.60;99.90
19880;DHT22;10102;50.828;4.416;2023-04-29T08:24:50;13.90;99.90
19880;DHT22;10102;50.828;4.416;2023-04-29T08:29:42;14.20;99.90
19880;DHT22;10102;50.828;4.416;2023-04-29T08:34:34;13.90;99.90
19880;DHT22;10102;50.828;4.416;2023-04-29T08:37:01;14.40;99.90
19880;DHT22;10102;50.828;4.416;2023-04-29T08:39:28;14.50;99.90
19880;DHT22;10102;50.828;4.416;2023-04-29T08:41:58;14.70;99.90
19880;DHT22;10102;50.828;4.416;2023-04-29T08:44:27;14.80;99.90
19880;DHT22;10102;50.828;4.416;2023-04-29T08:46:54;14.70;99.90
19880;DHT22;10102;50.828;4.416;2023-04-29T08:49:21;14.70;99.90
19880;DHT22;10102;50.828;4.416;2023-04-29T08:51:48;15.00;99.90
19880;DHT22;10102;50.828;4.416;2023-04-29T08:56:44;15.10;99.90
19880;DHT22;10102;50.828;4.416;2023-04-29T08:59:10;15.00;99.90
19880;DHT22;10102;50.828;4.416;2023-04-29T09:01:39;14.90;99.90
19880;DHT22;10102;50.828;4.416;2023-04-29T09:09:02;15.10;99.90
19880;DHT22;10102;50.828;4.416;2023-04-29T09:11:29;15.20;99.90
19880;DHT22;10102;50.828;4.416;2023-04-29T09:14:01;15.10;99.90
19880;DHT22;10102;50.828;4.416;2023-04-29T09:16:28;15.10;99.90
19880;DHT22;10102;50.828;4.416;2023-04-29T09:18:54;14.90;99.90
19880;DHT22;10102;50.828;4.416;2023-04-29T09:23:56;14.80;99.90
19880;DHT22;10102;50.828;4.416;2023-04-29T09:26:23;15.00;99.90
19880;DHT22;10102;50.828;4.416;2023-04-29T09:31:35;15.10;99.90
19880;DHT22;10102;50.828;4.416;2023-04-29T09:41:41;15.80;99.90
19880;DHT22;10102;50.828;4.416;2023-04-29T09:44:08;16.00;99.90
19880;DHT22;10102;50.828;4.416;2023-04-29T09:46:35;16.50;99.90
19880;DHT22;10102;50.828;4.416;2023-04-29T09:49:24;16.10;99.90
19880;DHT22;10102;50.828;4.416;2023-04-29T09:52:01;16.10;99.90
19880;DHT22;10102;50.828;4.416;2023-04-29T09:54:31;15.90;99.90
19880;DHT22;10102;50.828;4.416;2023-04-29T09:56:59;16.00;99.90
19880;DHT22;10102;50.828;4.416;2023-04-29T09:59:25;16.10;99.90
19880;DHT22;10102;50.828;4.416;2023-04-29T10:01:55;16.20;99.90
19880;DHT22;10102;50.828;4.416;2023-04-29T10:04:23;16.10;99.90
19880;DHT22;10102;50.828;4.416;2023-04-29T10:06:50;16.20;99.90
19880;DHT22;10102;50.828;4.416;2023-04-29T10:09:17;15.90;99.90
19880;DHT22;10102;50.828;4.416;2023-04-29T10:11:51;16.30;99.90
19880;DHT22;10102;50.828;4.416;2023-04-29T10:14:18;16.90;99.90
19880;DHT22;10102;50.828;4.416;2023-04-29T10:16:48;17.20;99.90
19880;DHT22;10102;50.828;4.416;2023-04-29T10:19:23;17.20;99.90
19880;DHT22;10102;50.828;4.416;2023-04-29T10:21:50;17.40;99.90
19880;DHT22;10102;50.828;4.416;2023-04-29T10:24:17;18.10;99.90
19880;DHT22;10102;50.828;4.416;2023-04-29T10:26:44;18.30;99.90
19880;DHT22;10102;50.828;4.416;2023-04-29T10:29:12;18.70;99.90
19880;DHT22;10102;50.828;4.416;2023-04-29T10:31:40;19.30;99.90
19880;DHT22;10102;50.828;4.416;2023-04-29T10:34:07;18.90;99.90
19880;DHT22;10102;50.828;4.416;2023-04-29T10:36:34;18.80;99.90
19880;DHT22;10102;50.828;4.416;2023-04-29T10:39:03;18.30;99.90
19880;DHT22;10102;50.828;4.416;2023-04-29T10:41:42;18.30;99.90
19880;DHT22;10102;50.828;4.416;2023-04-29T10:44:11;17.80;99.90
19880;DHT22;10102;50.828;4.416;2023-04-29T10:46:37;17.40;99.90
19880;DHT22;10102;50.828;4.416;2023-04-29T10:49:03;17.60;99.90
19880;DHT22;10102;50.828;4.416;2023-04-29T10:51:32;17.20;99.90
19880;DHT22;10102;50.828;4.416;2023-04-29T10:56:39;17.10;99.90
19880;DHT22;10102;50.828;4.416;2023-04-29T10:59:08;17.20;99.90
19880;DHT22;10102;50.828;4.416;2023-04-29T11:01:45;17.20;99.90
19880;DHT22;10102;50.828;4.416;2023-04-29T11:04:11;17.30;99.90
19880;DHT22;10102;50.828;4.416;2023-04-29T11:09:09;17.90;99.90
19880;DHT22;10102;50.828;4.416;2023-04-29T11:14:11;18.00;99.90
19880;DHT22;10102;50.828;4.416;2023-04-29T11:16:37;18.50;99.90
19880;DHT22;10102;50.828;4.416;2023-04-29T11:19:07;17.90;99.90
19880;DHT22;10102;50.828;4.416;2023-04-29T11:21:36;18.40;99.90
19880;DHT22;10102;50.828;4.416;2023-04-29T11:24:03;17.70;99.90
19880;DHT22;10102;50.828;4.416;2023-04-29T11:26:32;17.50;99.90
19880;DHT22;10102;50.828;4.416;2023-04-29T11:28:59;17.50;99.90
19880;DHT22;10102;50.828;4.416;2023-04-29T11:31:28;17.30;99.90
19880;DHT22;10102;50.828;4.416;2023-04-29T11:33:54;17.30;99.90
19880;DHT22;10102;50.828;4.416;2023-04-29T11:38:46;17.90;99.90
19880;DHT22;10102;50.828;4.416;2023-04-29T11:41:12;18.30;99.90
19880;DHT22;10102;50.828;4.416;2023-04-29T11:43:40;18.70;99.90
19880;DHT22;10102;50.828;4.416;2023-04-29T11:46:15;18.80;99.90
19880;DHT22;10102;50.828;4.416;2023-04-29T11:48:48;18.90;99.90
19880;DHT22;10102;50.828;4.416;2023-04-29T11:51:15;19.60;99.90
19880;DHT22;10102;50.828;4.416;2023-04-29T11:53:42;19.90;99.90
19880;DHT22;10102;50.828;4.416;2023-04-29T11:56:09;20.40;99.90
19880;DHT22;10102;50.828;4.416;2023-04-29T11:58:36;20.40;99.90
19880;DHT22;10102;50.828;4.416;2023-04-29T12:01:03;20.30;99.90
19880;DHT22;10102;50.828;4.416;2023-04-29T12:03:31;20.30;99.90
19880;DHT22;10102;50.828;4.416;2023-04-29T12:05:57;20.20;99.90
19880;DHT22;10102;50.828;4.416;2023-04-29T12:08:26;20.20;99.90
19880;DHT22;10102;50.828;4.416;2023-04-29T12:10:55;20.30;99.90
19880;DHT22;10102;50.828;4.416;2023-04-29T12:13:23;20.30;99.90
19880;DHT22;10102;50.828;4.416;2023-04-29T12:15:50;20.80;99.90
19880;DHT22;10102;50.828;4.416;2023-04-29T12:18:17;20.60;99.90
19880;DHT22;10102;50.828;4.416;2023-04-29T12:20:44;20.80;99.90
19880;DHT22;10102;50.828;4.416;2023-04-29T12:23:17;21.10;99.90
19880;DHT22;10102;50.828;4.416;2023-04-29T12:25:54;21.00;99.90
19880;DHT22;10102;50.828;4.416;2023-04-29T12:28:22;20.00;99.90
19880;DHT22;10102;50.828;4.416;2023-04-29T12:30:49;19.90;99.90
19880;DHT22;10102;50.828;4.416;2023-04-29T12:33:26;19.90;99.90
19880;DHT22;10102;50.828;4.416;2023-04-29T12:35:54;19.50;99.90
19880;DHT22;10102;50.828;4.416;2023-04-29T12:38:24;19.10;99.90
19880;DHT22;10102;50.828;4.416;2023-04-29T12:40:54;19.20;99.90
19880;DHT22;10102;50.828;4.416;2023-04-29T12:43:31;18.90;99.90
19880;DHT22;10102;50.828;4.416;2023-04-29T12:46:08;18.90;99.90
19880;DHT22;10102;50.828;4.416;2023-04-29T12:48:37;18.60;99.90
19880;DHT22;10102;50.828;4.416;2023-04-29T12:51:03;18.70;99.90
19880;DHT22;10102;50.828;4.416;2023-04-29T12:53:30;18.70;99.90
19880;DHT22;10102;50.828;4.416;2023-04-29T12:55:56;18.70;99.90
19880;DHT22;10102;50.828;4.416;2023-04-29T12:58:22;18.50;99.90
19880;DHT22;10102;50.828;4.416;2023-04-29T13:00:48;18.40;99.90
19880;DHT22;10102;50.828;4.416;2023-04-29T13:03:13;18.30;99.90
19880;DHT22;10102;50.828;4.416;2023-04-29T13:05:39;18.40;99.90
19880;DHT22;10102;50.828;4.416;2023-04-29T13:08:05;18.20;99.90
19880;DHT22;10102;50.828;4.416;2023-04-29T13:10:31;18.30;99.90
19880;DHT22;10102;50.828;4.416;2023-04-29T13:12:58;18.30;99.90
19880;DHT22;10102;50.828;4.416;2023-04-29T13:15:24;18.40;99.90
19880;DHT22;10102;50.828;4.416;2023-04-29T13:17:50;18.70;99.90
19880;DHT22;10102;50.828;4.416;2023-04-29T13:20:16;18.90;99.90
19880;DHT22;10102;50.828;4.416;2023-04-29T13:22:42;19.10;99.90
19880;DHT22;10102;50.828;4.416;2023-04-29T13:25:11;18.90;99.90
19880;DHT22;10102;50.828;4.416;2023-04-29T13:27:38;19.70;99.90
19880;DHT22;10102;50.828;4.416;2023-04-29T13:30:07;19.80;99.90
19880;DHT22;10102;50.828;4.416;2023-04-29T13:32:33;20.30;99.90
19880;DHT22;10102;50.828;4.416;2023-04-29T13:34:59;20.40;99.90
19880;DHT22;10102;50.828;4.416;2023-04-29T13:37:25;20.60;99.90
19880;DHT22;10102;50.828;4.416;2023-04-29T13:39:51;20.80;99.90
19880;DHT22;10102;50.828;4.416;2023-04-29T13:42:17;20.80;99.90
19880;DHT22;10102;50.828;4.416;2023-04-29T13:44:42;20.80;99.90
19880;DHT22;10102;50.828;4.416;2023-04-29T13:47:12;20.90;99.90
19880;DHT22;10102;50.828;4.416;2023-04-29T13:49:39;21.40;99.90
19880;DHT22;10102;50.828;4.416;2023-04-29T13:52:06;21.00;99.90
19880;DHT22;10102;50.828;4.416;2023-04-29T13:54:32;20.90;99.90
19880;DHT22;10102;50.828;4.416;2023-04-29T13:56:59;20.60;99.90
19880;DHT22;10102;50.828;4.416;2023-04-29T13:59:25;20.30;99.90
19880;DHT22;10102;50.828;4.416;2023-04-29T14:01:51;20.50;99.90
19880;DHT22;10102;50.828;4.416;2023-04-29T14:04:17;20.40;99.90
19880;DHT22;10102;50.828;4.416;2023-04-29T14:06:43;20.70;99.90
19880;DHT22;10102;50.828;4.416;2023-04-29T14:09:09;20.50;99.90
19880;DHT22;10102;50.828;4.416;2023-04-29T14:11:35;20.40;99.90
19880;DHT22;10102;50.828;4.416;2023-04-29T14:14:01;20.10;99.90
19880;DHT22;10102;50.828;4.416;2023-04-29T14:16:28;20.00;99.90
19880;DHT22;10102;50.828;4.416;2023-04-29T14:18:54;19.40;99.90
19880;DHT22;10102;50.828;4.416;2023-04-29T14:21:20;19.40;99.90
19880;DHT22;10102;50.828;4.416;2023-04-29T14:23:47;19.30;99.90
19880;DHT22;10102;50.828;4.416;2023-04-29T14:26:13;19.20;99.90
19880;DHT22;10102;50.828;4.416;2023-04-29T14:28:39;19.00;99.90
19880;DHT22;10102;50.828;4.416;2023-04-29T14:31:05;19.50;99.90
19880;DHT22;10102;50.828;4.416;2023-04-29T14:33:30;19.20;99.90
19880;DHT22;10102;50.828;4.416;2023-04-29T14:35:56;19.20;99.90
19880;DHT22;10102;50.828;4.416;2023-04-29T14:38:22;18.80;99.90
19880;DHT22;10102;50.828;4.416;2023-04-29T14:40:48;19.20;99.90
19880;DHT22;10102;50.828;4.416;2023-04-29T14:43:13;18.70;99.90
19880;DHT22;10102;50.828;4.416;2023-04-29T14:45:39;18.70;99.90
19880;DHT22;10102;50.828;4.416;2023-04-29T14:48:06;18.50;99.90
19880;DHT22;10102;50.828;4.416;2023-04-29T14:52:58;18.50;99.90
19880;DHT22;10102;50.828;4.416;2023-04-29T14:55:26;18.60;99.90
19880;DHT22;10102;50.828;4.416;2023-04-29T14:57:51;18.30;99.90
19880;DHT22;10102;50.828;4.416;2023-04-29T15:00:17;18.50;99.90
19880;DHT22;10102;50.828;4.416;2023-04-29T15:02:43;18.80;99.90
19880;DHT22;10102;50.828;4.416;2023-04-29T15:05:09;18.40;99.90
19880;DHT22;10102;50.828;4.416;2023-04-29T15:07:35;18.60;99.90
19880;DHT22;10102;50.828;4.416;2023-04-29T15:10:01;19.10;99.90
19880;DHT22;10102;50.828;4.416;2023-04-29T15:12:26;19.60;99.90
19880;DHT22;10102;50.828;4.416;2023-04-29T15:14:52;20.00;99.90
19880;DHT22;10102;50.828;4.416;2023-04-29T15:17:18;20.00;99.90
19880;DHT22;10102;50.828;4.416;2023-04-29T15:19:44;19.90;99.90
19880;DHT22;10102;50.828;4.416;2023-04-29T15:22:09;19.70;99.90
19880;DHT22;10102;50.828;4.416;2023-04-29T15:24:35;19.40;99.90
19880;DHT22;10102;50.828;4.416;2023-04-29T15:27:02;18.80;99.90
19880;DHT22;10102;50.828;4.416;2023-04-29T15:29:27;18.60;99.90
19880;DHT22;10102;50.828;4.416;2023-04-29T15:31:54;18.30;99.90
19880;DHT22;10102;50.828;4.416;2023-04-29T15:34:19;18.20;99.90
19880;DHT22;10102;50.828;4.416;2023-04-29T15:36:46;18.20;99.90
19880;DHT22;10102;50.828;4.416;2023-04-29T15:41:38;18.20;99.90
19880;DHT22;10102;50.828;4.416;2023-04-29T15:44:04;18.30;99.90
19880;DHT22;10102;50.828;4.416;2023-04-29T15:46:30;18.30;99.90
19880;DHT22;10102;50.828;4.416;2023-04-29T15:48:56;18.30;99.90
19880;DHT22;10102;50.828;4.416;2023-04-29T15:51:22;18.40;99.90
19880;DHT22;10102;50.828;4.416;2023-04-29T15:53:48;18.30;99.90
19880;DHT22;10102;50.828;4.416;2023-04-29T15:56:15;18.60;99.90
19880;DHT22;10102;50.828;4.416;2023-04-29T15:58:41;18.70;99.90
19880;DHT22;10102;50.828;4.416;2023-04-29T16:01:07;18.60;99.90
19880;DHT22;10102;50.828;4.416;2023-04-29T16:03:33;18.70;99.90
19880;DHT22;10102;50.828;4.416;2023-04-29T16:05:59;18.60;99.90
19880;DHT22;10102;50.828;4.416;2023-04-29T16:08:25;18.80;99.90
19880;DHT22;10102;50.828;4.416;2023-04-29T16:10:51;18.70;99.90
19880;DHT22;10102;50.828;4.416;2023-04-29T16:13:16;18.70;99.90
19880;DHT22;10102;50.828;4.416;2023-04-29T16:15:42;18.80;99.90
19880;DHT22;10102;50.828;4.416;2023-04-29T16:18:08;18.70;99.90
19880;DHT22;10102;50.828;4.416;2023-04-29T16:20:35;18.50;99.90
19880;DHT22;10102;50.828;4.416;2023-04-29T16:23:00;18.50;99.90
19880;DHT22;10102;50.828;4.416;2023-04-29T16:25:26;18.50;99.90
19880;DHT22;10102;50.828;4.416;2023-04-29T16:27:52;18.40;99.90
19880;DHT22;10102;50.828;4.416;2023-04-29T16:30:18;18.50;99.90
19880;DHT22;10102;50.828;4.416;2023-04-29T16:32:44;17.90;99.90
19880;DHT22;10102;50.828;4.416;2023-04-29T16:35:09;18.20;99.90
19880;DHT22;10102;50.828;4.416;2023-04-29T16:37:35;18.20;99.90
19880;DHT22;10102;50.828;4.416;2023-04-29T16:40:02;18.10;99.90
19880;DHT22;10102;50.828;4.416;2023-04-29T16:42:28;17.90;99.90
19880;DHT22;10102;50.828;4.416;2023-04-29T16:44:54;18.40;99.90
19880;DHT22;10102;50.828;4.416;2023-04-29T16:47:20;18.20;99.90
19880;DHT22;10102;50.828;4.416;2023-04-29T16:49:48;18.50;99.90
19880;DHT22;10102;50.828;4.416;2023-04-29T16:52:14;18.10;99.90
19880;DHT22;10102;50.828;4.416;2023-04-29T16:54:40;18.40;99.90
19880;DHT22;10102;50.828;4.416;2023-04-29T16:57:06;18.60;99.90
19880;DHT22;10102;50.828;4.416;2023-04-29T16:59:32;18.80;99.90
19880;DHT22;10102;50.828;4.416;2023-04-29T17:01:58;20.50;99.90
19880;DHT22;10102;50.828;4.416;2023-04-29T17:04:27;18.40;99.90
19880;DHT22;10102;50.828;4.416;2023-04-29T17:06:53;18.10;99.90
19880;DHT22;10102;50.828;4.416;2023-04-29T17:09:19;18.40;99.90
19880;DHT22;10102;50.828;4.416;2023-04-29T17:11:48;18.20;99.90
19880;DHT22;10102;50.828;4.416;2023-04-29T17:14:14;18.30;99.90
19880;DHT22;10102;50.828;4.416;2023-04-29T17:16:40;18.40;99.90
19880;DHT22;10102;50.828;4.416;2023-04-29T17:19:06;18.50;99.90
19880;DHT22;10102;50.828;4.416;2023-04-29T17:21:32;18.20;99.90
19880;DHT22;10102;50.828;4.416;2023-04-29T17:23:58;18.30;99.90
19880;DHT22;10102;50.828;4.416;2023-04-29T17:26:23;18.10;99.90
19880;DHT22;10102;50.828;4.416;2023-04-29T17:28:49;18.20;99.90
19880;DHT22;10102;50.828;4.416;2023-04-29T17:31:15;18.20;99.90
19880;DHT22;10102;50.828;4.416;2023-04-29T17:33:41;18.40;99.90
19880;DHT22;10102;50.828;4.416;2023-04-29T17:38:45;18.10;99.90
19880;DHT22;10102;50.828;4.416;2023-04-29T17:41:10;17.80;99.90
19880;DHT22;10102;50.828;4.416;2023-04-29T17:43:36;17.90;99.90
19880;DHT22;10102;50.828;4.416;2023-04-29T17:46:02;17.90;99.90
19880;DHT22;10102;50.828;4.416;2023-04-29T17:48:28;17.90;99.90
19880;DHT22;10102;50.828;4.416;2023-04-29T17:50:53;17.80;99.90
19880;DHT22;10102;50.828;4.416;2023-04-29T17:53:19;17.90;99.90
19880;DHT22;10102;50.828;4.416;2023-04-29T17:55:45;17.60;99.90
19880;DHT22;10102;50.828;4.416;2023-04-29T17:58:11;17.60;99.90
19880;DHT22;10102;50.828;4.416;2023-04-29T18:03:04;17.70;99.90
19880;DHT22;10102;50.828;4.416;2023-04-29T18:05:29;17.50;99.90
19880;DHT22;10102;50.828;4.416;2023-04-29T18:07:56;17.50;99.90